sensor_id;sensor_type;location;lat;lon;timestamp;temperature;humidity
546;DHT22;259;53.304;9.816;2022-07-29T00:00:35;20.00;77.30
546;DHT22;259;53.304;9.816;2022-07-29T00:03:01;20.00;77.30
546;DHT22;259;53.304;9.816;2022-07-29T00:05:27;20.00;77.30
546;DHT22;259;53.304;9.816;2022-07-29T00:07:52;20.00;77.30
546;DHT22;259;53.304;9.816;2022-07-29T00:10:18;20.00;77.30
546;DHT22;259;53.304;9.816;2022-07-29T00:12:43;20.00;77.40
546;DHT22;259;53.304;9.816;2022-07-29T00:15:09;20.00;77.40
546;DHT22;259;53.304;9.816;2022-07-29T00:17:35;19.90;77.30
546;DHT22;259;53.304;9.816;2022-07-29T00:20:00;19.90;77.30
546;DHT22;259;53.304;9.816;2022-07-29T00:22:26;19.90;77.30
546;DHT22;259;53.304;9.816;2022-07-29T00:24:52;19.90;77.40
546;DHT22;259;53.304;9.816;2022-07-29T00:27:18;19.90;77.30
546;DHT22;259;53.304;9.816;2022-07-29T00:29:43;19.90;77.40
546;DHT22;259;53.304;9.816;2022-07-29T00:32:09;19.90;77.40
546;DHT22;259;53.304;9.816;2022-07-29T00:34:34;19.80;77.30
546;DHT22;259;53.304;9.816;2022-07-29T00:37:18;19.90;77.40
546;DHT22;259;53.304;9.816;2022-07-29T00:39:44;19.90;77.40
546;DHT22;259;53.304;9.816;2022-07-29T00:42:10;19.90;77.40
546;DHT22;259;53.304;9.816;2022-07-29T00:44:37;19.80;77.30
546;DHT22;259;53.304;9.816;2022-07-29T00:47:03;19.80;77.30
546;DHT22;259;53.304;9.816;2022-07-29T00:49:29;19.80;77.30
546;DHT22;259;53.304;9.816;2022-07-29T00:51:55;19.80;77.40
546;DHT22;259;53.304;9.816;2022-07-29T00:54:22;19.80;77.30
546;DHT22;259;53.304;9.816;2022-07-29T00:56:47;19.80;77.40
546;DHT22;259;53.304;9.816;2022-07-29T00:59:13;19.80;77.40
546;DHT22;259;53.304;9.816;2022-07-29T01:01:39;19.70;77.30
546;DHT22;259;53.304;9.816;2022-07-29T01:04:06;19.70;77.30
546;DHT22;259;53.304;9.816;2022-07-29T01:06:32;19.70;77.40
546;DHT22;259;53.304;9.816;2022-07-29T01:08:59;19.70;77.40
546;DHT22;259;53.304;9.816;2022-07-29T01:11:25;19.70;77.40
546;DHT22;259;53.304;9.816;2022-07-29T01:13:51;19.70;77.40
546;DHT22;259;53.304;9.816;2022-07-29T01:16:37;19.70;77.30
546;DHT22;259;53.304;9.816;2022-07-29T01:25:28;19.60;77.30
546;DHT22;259;53.304;9.816;2022-07-29T01:30:48;19.60;77.30
546;DHT22;259;53.304;9.816;2022-07-29T01:33:17;19.60;77.30
546;DHT22;259;53.304;9.816;2022-07-29T01:36:06;19.60;77.40
546;DHT22;259;53.304;9.816;2022-07-29T01:38:33;19.60;77.40
546;DHT22;259;53.304;9.816;2022-07-29T01:41:09;19.60;77.40
546;DHT22;259;53.304;9.816;2022-07-29T01:43:51;19.60;77.40
546;DHT22;259;53.304;9.816;2022-07-29T01:46:25;19.60;77.40
546;DHT22;259;53.304;9.816;2022-07-29T01:49:00;19.50;77.30
546;DHT22;259;53.304;9.816;2022-07-29T01:51:40;19.50;77.30
546;DHT22;259;53.304;9.816;2022-07-29T01:56:36;19.50;77.40
546;DHT22;259;53.304;9.816;2022-07-29T01:59:04;19.50;77.40
546;DHT22;259;53.304;9.816;2022-07-29T02:01:32;19.50;77.40
546;DHT22;259;53.304;9.816;2022-07-29T02:03:59;19.50;77.40
546;DHT22;259;53.304;9.816;2022-07-29T02:06:27;19.50;77.40
546;DHT22;259;53.304;9.816;2022-07-29T02:08:56;19.40;77.30
546;DHT22;259;53.304;9.816;2022-07-29T02:11:23;19.40;77.30
546;DHT22;259;53.304;9.816;2022-07-29T02:13:50;19.40;78.10
546;DHT22;259;53.304;9.816;2022-07-29T02:16:19;19.40;77.40
546;DHT22;259;53.304;9.816;2022-07-29T02:18:49;19.40;77.40
546;DHT22;259;53.304;9.816;2022-07-29T02:21:21;19.40;77.40
546;DHT22;259;53.304;9.816;2022-07-29T02:23:48;19.40;77.40
546;DHT22;259;53.304;9.816;2022-07-29T02:26:17;19.40;77.40
546;DHT22;259;53.304;9.816;2022-07-29T02:28:43;19.40;77.50
546;DHT22;259;53.304;9.816;2022-07-29T02:31:10;19.40;77.40
546;DHT22;259;53.304;9.816;2022-07-29T02:33:37;19.40;77.50
546;DHT22;259;53.304;9.816;2022-07-29T02:36:04;19.40;77.60
546;DHT22;259;53.304;9.816;2022-07-29T02:38:30;19.30;77.40
546;DHT22;259;53.304;9.816;2022-07-29T02:41:23;19.30;77.40
546;DHT22;259;53.304;9.816;2022-07-29T02:43:53;19.30;77.40
546;DHT22;259;53.304;9.816;2022-07-29T02:46:23;19.30;77.40
546;DHT22;259;53.304;9.816;2022-07-29T02:49:00;19.30;77.40
546;DHT22;259;53.304;9.816;2022-07-29T02:51:39;19.30;77.40
546;DHT22;259;53.304;9.816;2022-07-29T02:54:07;19.30;77.40
546;DHT22;259;53.304;9.816;2022-07-29T02:56:34;19.30;77.40
546;DHT22;259;53.304;9.816;2022-07-29T02:59:06;19.30;77.50
546;DHT22;259;53.304;9.816;2022-07-29T03:01:35;19.20;77.40
546;DHT22;259;53.304;9.816;2022-07-29T03:04:04;19.20;77.30
546;DHT22;259;53.304;9.816;2022-07-29T03:06:30;19.20;77.40
546;DHT22;259;53.304;9.816;2022-07-29T03:08:59;19.20;77.40
546;DHT22;259;53.304;9.816;2022-07-29T03:11:25;19.20;77.40
546;DHT22;259;53.304;9.816;2022-07-29T03:13:52;19.20;77.40
546;DHT22;259;53.304;9.816;2022-07-29T03:16:19;19.20;77.50
546;DHT22;259;53.304;9.816;2022-07-29T03:18:45;19.20;77.40
546;DHT22;259;53.304;9.816;2022-07-29T03:21:11;19.20;77.40
546;DHT22;259;53.304;9.816;2022-07-29T03:23:37;19.20;77.50
546;DHT22;259;53.304;9.816;2022-07-29T03:26:02;19.10;77.40
546;DHT22;259;53.304;9.816;2022-07-29T03:28:29;19.10;77.50
546;DHT22;259;53.304;9.816;2022-07-29T03:30:55;19.10;77.50
546;DHT22;259;53.304;9.816;2022-07-29T03:33:20;19.10;77.50
546;DHT22;259;53.304;9.816;2022-07-29T03:35:46;19.10;77.60
546;DHT22;259;53.304;9.816;2022-07-29T03:38:11;19.10;77.50
546;DHT22;259;53.304;9.816;2022-07-29T03:40:49;19.10;77.60
546;DHT22;259;53.304;9.816;2022-07-29T03:43:17;19.10;77.60
546;DHT22;259;53.304;9.816;2022-07-29T03:45:47;19.10;77.60
546;DHT22;259;53.304;9.816;2022-07-29T03:48:16;19.00;77.50
546;DHT22;259;53.304;9.816;2022-07-29T03:50:43;19.00;77.60
546;DHT22;259;53.304;9.816;2022-07-29T03:53:08;19.00;77.60
546;DHT22;259;53.304;9.816;2022-07-29T03:55:40;19.00;77.60
546;DHT22;259;53.304;9.816;2022-07-29T03:58:07;19.00;77.70
546;DHT22;259;53.304;9.816;2022-07-29T04:00:34;19.00;77.70
546;DHT22;259;53.304;9.816;2022-07-29T04:03:02;19.00;77.70
546;DHT22;259;53.304;9.816;2022-07-29T04:05:28;19.00;77.80
546;DHT22;259;53.304;9.816;2022-07-29T04:07:54;19.00;77.80
546;DHT22;259;53.304;9.816;2022-07-29T04:10:20;19.00;77.80
546;DHT22;259;53.304;9.816;2022-07-29T04:12:45;19.00;77.70
546;DHT22;259;53.304;9.816;2022-07-29T04:15:11;19.00;77.60
546;DHT22;259;53.304;9.816;2022-07-29T04:17:37;19.00;78.40
546;DHT22;259;53.304;9.816;2022-07-29T04:20:03;18.90;77.60
546;DHT22;259;53.304;9.816;2022-07-29T04:22:29;18.90;77.50
546;DHT22;259;53.304;9.816;2022-07-29T04:24:55;18.90;77.50
546;DHT22;259;53.304;9.816;2022-07-29T04:27:21;18.90;77.60
546;DHT22;259;53.304;9.816;2022-07-29T04:29:46;18.90;77.50
546;DHT22;259;53.304;9.816;2022-07-29T04:32:12;18.90;77.60
546;DHT22;259;53.304;9.816;2022-07-29T04:34:38;18.90;77.60
546;DHT22;259;53.304;9.816;2022-07-29T04:37:03;18.90;77.60
546;DHT22;259;53.304;9.816;2022-07-29T04:39:29;18.90;77.60
546;DHT22;259;53.304;9.816;2022-07-29T04:41:55;18.90;77.70
546;DHT22;259;53.304;9.816;2022-07-29T04:44:21;18.90;77.80
546;DHT22;259;53.304;9.816;2022-07-29T04:46:47;18.80;77.60
546;DHT22;259;53.304;9.816;2022-07-29T04:49:13;18.80;77.60
546;DHT22;259;53.304;9.816;2022-07-29T04:51:38;18.80;77.60
546;DHT22;259;53.304;9.816;2022-07-29T04:54:04;18.80;77.60
546;DHT22;259;53.304;9.816;2022-07-29T04:56:30;18.80;77.60
546;DHT22;259;53.304;9.816;2022-07-29T04:58:55;18.80;77.70
546;DHT22;259;53.304;9.816;2022-07-29T05:01:21;18.80;77.70
546;DHT22;259;53.304;9.816;2022-07-29T05:03:47;18.80;77.80
546;DHT22;259;53.304;9.816;2022-07-29T05:06:12;18.80;77.70
546;DHT22;259;53.304;9.816;2022-07-29T05:08:38;18.80;77.80
546;DHT22;259;53.304;9.816;2022-07-29T05:11:03;18.80;77.80
546;DHT22;259;53.304;9.816;2022-07-29T05:13:29;18.80;77.80
546;DHT22;259;53.304;9.816;2022-07-29T05:15:55;18.80;77.80
546;DHT22;259;53.304;9.816;2022-07-29T05:18:21;18.80;77.80
546;DHT22;259;53.304;9.816;2022-07-29T05:20:46;18.70;77.70
546;DHT22;259;53.304;9.816;2022-07-29T05:23:12;18.70;77.70
546;DHT22;259;53.304;9.816;2022-07-29T05:25:38;18.70;77.70
546;DHT22;259;53.304;9.816;2022-07-29T05:28:03;18.70;77.80
546;DHT22;259;53.304;9.816;2022-07-29T05:30:29;18.70;77.80
546;DHT22;259;53.304;9.816;2022-07-29T05:32:54;18.70;77.80
546;DHT22;259;53.304;9.816;2022-07-29T05:35:20;18.70;77.80
546;DHT22;259;53.304;9.816;2022-07-29T05:37:46;18.70;77.80
546;DHT22;259;53.304;9.816;2022-07-29T05:40:11;18.70;77.90
546;DHT22;259;53.304;9.816;2022-07-29T05:42:37;18.70;77.90
546;DHT22;259;53.304;9.816;2022-07-29T05:45:03;18.70;77.90
546;DHT22;259;53.304;9.816;2022-07-29T05:47:28;18.70;77.80
546;DHT22;259;53.304;9.816;2022-07-29T05:49:54;18.70;77.80
546;DHT22;259;53.304;9.816;2022-07-29T05:52:20;18.70;77.80
546;DHT22;259;53.304;9.816;2022-07-29T05:54:46;18.70;77.80
546;DHT22;259;53.304;9.816;2022-07-29T05:57:19;18.70;77.80
546;DHT22;259;53.304;9.816;2022-07-29T05:59:45;18.70;77.80
546;DHT22;259;53.304;9.816;2022-07-29T06:02:11;18.70;77.80
546;DHT22;259;53.304;9.816;2022-07-29T06:04:37;18.70;77.80
546;DHT22;259;53.304;9.816;2022-07-29T06:07:03;18.60;77.70
546;DHT22;259;53.304;9.816;2022-07-29T06:09:28;18.60;77.70
546;DHT22;259;53.304;9.816;2022-07-29T06:11:54;18.60;77.70
546;DHT22;259;53.304;9.816;2022-07-29T06:14:20;18.60;77.80
546;DHT22;259;53.304;9.816;2022-07-29T06:16:45;18.60;77.80
546;DHT22;259;53.304;9.816;2022-07-29T06:19:11;18.60;77.80
546;DHT22;259;53.304;9.816;2022-07-29T06:21:41;18.70;77.90
546;DHT22;259;53.304;9.816;2022-07-29T06:24:07;18.60;77.80
546;DHT22;259;53.304;9.816;2022-07-29T06:26:33;18.60;77.80
546;DHT22;259;53.304;9.816;2022-07-29T06:28:58;18.60;77.80
546;DHT22;259;53.304;9.816;2022-07-29T06:31:24;18.60;77.80
546;DHT22;259;53.304;9.816;2022-07-29T06:33:49;18.60;77.90
546;DHT22;259;53.304;9.816;2022-07-29T06:36:15;18.60;77.90
546;DHT22;259;53.304;9.816;2022-07-29T06:38:41;18.60;77.90
546;DHT22;259;53.304;9.816;2022-07-29T06:41:08;18.60;77.90
546;DHT22;259;53.304;9.816;2022-07-29T06:43:41;18.60;77.90
546;DHT22;259;53.304;9.816;2022-07-29T06:46:09;18.60;77.90
546;DHT22;259;53.304;9.816;2022-07-29T06:48:36;18.60;77.90
546;DHT22;259;53.304;9.816;2022-07-29T06:51:02;18.60;77.90
546;DHT22;259;53.304;9.816;2022-07-29T06:53:29;18.60;77.90
546;DHT22;259;53.304;9.816;2022-07-29T06:55:54;18.60;77.90
546;DHT22;259;53.304;9.816;2022-07-29T06:58:20;18.60;77.90
546;DHT22;259;53.304;9.816;2022-07-29T07:00:46;18.60;77.90
546;DHT22;259;53.304;9.816;2022-07-29T07:03:13;18.60;78.00
546;DHT22;259;53.304;9.816;2022-07-29T07:05:39;18.60;77.90
546;DHT22;259;53.304;9.816;2022-07-29T07:08:05;18.60;77.90
546;DHT22;259;53.304;9.816;2022-07-29T07:10:31;18.60;78.00
546;DHT22;259;53.304;9.816;2022-07-29T07:12:57;18.60;77.90
546;DHT22;259;53.304;9.816;2022-07-29T07:15:23;18.60;77.90
546;DHT22;259;53.304;9.816;2022-07-29T07:17:49;18.60;78.00
546;DHT22;259;53.304;9.816;2022-07-29T07:20:18;18.60;77.80
546;DHT22;259;53.304;9.816;2022-07-29T07:22:43;18.60;77.80
546;DHT22;259;53.304;9.816;2022-07-29T07:25:09;18.60;77.80
546;DHT22;259;53.304;9.816;2022-07-29T07:27:36;18.60;78.60
546;DHT22;259;53.304;9.816;2022-07-29T07:30:03;18.60;77.80
546;DHT22;259;53.304;9.816;2022-07-29T07:32:31;18.60;77.80
546;DHT22;259;53.304;9.816;2022-07-29T07:34:57;18.60;77.80
546;DHT22;259;53.304;9.816;2022-07-29T07:37:22;18.60;77.80
546;DHT22;259;53.304;9.816;2022-07-29T07:39:50;18.60;77.90
546;DHT22;259;53.304;9.816;2022-07-29T07:42:16;18.60;77.80
546;DHT22;259;53.304;9.816;2022-07-29T07:44:42;18.60;77.80
546;DHT22;259;53.304;9.816;2022-07-29T07:47:08;18.60;77.90
546;DHT22;259;53.304;9.816;2022-07-29T07:49:33;18.60;77.80
546;DHT22;259;53.304;9.816;2022-07-29T07:51:59;18.60;77.80
546;DHT22;259;53.304;9.816;2022-07-29T07:54:25;18.60;77.80
546;DHT22;259;53.304;9.816;2022-07-29T07:56:50;18.60;77.80
546;DHT22;259;53.304;9.816;2022-07-29T07:59:16;18.60;77.80
546;DHT22;259;53.304;9.816;2022-07-29T08:01:42;18.60;77.80
546;DHT22;259;53.304;9.816;2022-07-29T08:04:08;18.60;77.80
546;DHT22;259;53.304;9.816;2022-07-29T08:06:34;18.60;77.80
546;DHT22;259;53.304;9.816;2022-07-29T08:09:03;18.60;77.80
546;DHT22;259;53.304;9.816;2022-07-29T08:11:30;18.70;77.90
546;DHT22;259;53.304;9.816;2022-07-29T08:13:55;18.70;77.90
546;DHT22;259;53.304;9.816;2022-07-29T08:16:21;18.60;77.80
546;DHT22;259;53.304;9.816;2022-07-29T08:18:47;18.70;78.00
546;DHT22;259;53.304;9.816;2022-07-29T08:21:14;18.70;77.90
546;DHT22;259;53.304;9.816;2022-07-29T08:23:40;18.70;78.00
546;DHT22;259;53.304;9.816;2022-07-29T08:26:11;18.70;78.00
546;DHT22;259;53.304;9.816;2022-07-29T08:28:38;18.70;77.90
546;DHT22;259;53.304;9.816;2022-07-29T08:31:04;18.70;77.80
546;DHT22;259;53.304;9.816;2022-07-29T08:33:29;18.70;77.70
546;DHT22;259;53.304;9.816;2022-07-29T08:35:55;18.70;77.60
546;DHT22;259;53.304;9.816;2022-07-29T08:38:21;18.70;78.30
546;DHT22;259;53.304;9.816;2022-07-29T08:40:47;18.70;77.60
546;DHT22;259;53.304;9.816;2022-07-29T08:43:12;18.70;77.60
546;DHT22;259;53.304;9.816;2022-07-29T08:45:48;18.70;77.40
546;DHT22;259;53.304;9.816;2022-07-29T08:48:15;18.70;77.30
546;DHT22;259;53.304;9.816;2022-07-29T08:50:42;18.80;77.40
546;DHT22;259;53.304;9.816;2022-07-29T08:53:11;18.80;77.30
546;DHT22;259;53.304;9.816;2022-07-29T08:55:42;18.80;77.30
546;DHT22;259;53.304;9.816;2022-07-29T08:58:09;18.80;77.30
546;DHT22;259;53.304;9.816;2022-07-29T09:00:40;18.80;77.30
546;DHT22;259;53.304;9.816;2022-07-29T09:03:06;18.80;77.30
546;DHT22;259;53.304;9.816;2022-07-29T09:05:34;18.80;77.20
546;DHT22;259;53.304;9.816;2022-07-29T09:08:00;18.80;77.20
546;DHT22;259;53.304;9.816;2022-07-29T09:10:26;18.90;77.30
546;DHT22;259;53.304;9.816;2022-07-29T09:12:54;18.90;77.80
546;DHT22;259;53.304;9.816;2022-07-29T09:15:20;18.90;77.10
546;DHT22;259;53.304;9.816;2022-07-29T09:17:47;18.90;76.90
546;DHT22;259;53.304;9.816;2022-07-29T09:20:19;18.90;76.90
546;DHT22;259;53.304;9.816;2022-07-29T09:22:46;18.90;76.80
546;DHT22;259;53.304;9.816;2022-07-29T09:25:35;18.90;77.70
546;DHT22;259;53.304;9.816;2022-07-29T09:28:16;18.90;77.00
546;DHT22;259;53.304;9.816;2022-07-29T09:30:53;19.00;77.10
546;DHT22;259;53.304;9.816;2022-07-29T09:33:21;19.00;77.30
546;DHT22;259;53.304;9.816;2022-07-29T09:36:08;19.00;77.30
546;DHT22;259;53.304;9.816;2022-07-29T09:38:35;19.10;77.10
546;DHT22;259;53.304;9.816;2022-07-29T09:41:03;19.10;76.90
546;DHT22;259;53.304;9.816;2022-07-29T09:43:29;19.10;76.90
546;DHT22;259;53.304;9.816;2022-07-29T09:45:55;19.10;77.00
546;DHT22;259;53.304;9.816;2022-07-29T09:48:23;19.10;76.90
546;DHT22;259;53.304;9.816;2022-07-29T09:50:49;19.10;76.90
546;DHT22;259;53.304;9.816;2022-07-29T09:53:37;19.10;77.10
546;DHT22;259;53.304;9.816;2022-07-29T09:56:04;19.10;77.00
546;DHT22;259;53.304;9.816;2022-07-29T09:58:30;19.10;77.00
546;DHT22;259;53.304;9.816;2022-07-29T10:00:56;19.10;77.00
546;DHT22;259;53.304;9.816;2022-07-29T10:03:22;19.10;77.10
546;DHT22;259;53.304;9.816;2022-07-29T10:06:11;19.10;77.20
546;DHT22;259;53.304;9.816;2022-07-29T10:08:38;19.10;77.30
546;DHT22;259;53.304;9.816;2022-07-29T10:11:16;19.10;77.50
546;DHT22;259;53.304;9.816;2022-07-29T10:13:43;19.10;77.50
546;DHT22;259;53.304;9.816;2022-07-29T10:16:10;19.10;77.40
546;DHT22;259;53.304;9.816;2022-07-29T10:18:38;19.10;77.50
546;DHT22;259;53.304;9.816;2022-07-29T10:21:04;19.20;78.40
546;DHT22;259;53.304;9.816;2022-07-29T10:23:30;19.20;77.60
546;DHT22;259;53.304;9.816;2022-07-29T10:25:56;19.20;77.60
546;DHT22;259;53.304;9.816;2022-07-29T10:28:23;19.20;77.60
546;DHT22;259;53.304;9.816;2022-07-29T10:30:50;19.20;77.60
546;DHT22;259;53.304;9.816;2022-07-29T10:33:39;19.20;77.60
546;DHT22;259;53.304;9.816;2022-07-29T10:42:15;19.30;77.60
546;DHT22;259;53.304;9.816;2022-07-29T10:44:42;19.30;77.60
546;DHT22;259;53.304;9.816;2022-07-29T10:47:25;19.30;77.60
546;DHT22;259;53.304;9.816;2022-07-29T10:50:03;19.30;77.60
546;DHT22;259;53.304;9.816;2022-07-29T10:55:32;19.40;77.70
546;DHT22;259;53.304;9.816;2022-07-29T10:58:21;19.40;77.60
546;DHT22;259;53.304;9.816;2022-07-29T11:00:51;19.40;77.60
546;DHT22;259;53.304;9.816;2022-07-29T11:03:42;19.50;77.60
546;DHT22;259;53.304;9.816;2022-07-29T11:06:09;19.50;77.60
546;DHT22;259;53.304;9.816;2022-07-29T11:08:35;19.50;77.60
546;DHT22;259;53.304;9.816;2022-07-29T11:16:12;19.50;77.40
546;DHT22;259;53.304;9.816;2022-07-29T11:21:36;19.60;77.40
546;DHT22;259;53.304;9.816;2022-07-29T11:32:14;19.70;77.50
546;DHT22;259;53.304;9.816;2022-07-29T11:34:41;19.70;77.40
546;DHT22;259;53.304;9.816;2022-07-29T11:39:34;19.80;77.60
546;DHT22;259;53.304;9.816;2022-07-29T11:45:08;19.80;77.50
546;DHT22;259;53.304;9.816;2022-07-29T11:47:39;19.90;77.60
546;DHT22;259;53.304;9.816;2022-07-29T11:50:08;19.90;77.60
546;DHT22;259;53.304;9.816;2022-07-29T11:52:36;19.90;77.50
546;DHT22;259;53.304;9.816;2022-07-29T11:55:23;19.90;77.40
546;DHT22;259;53.304;9.816;2022-07-29T11:57:54;20.00;77.40
546;DHT22;259;53.304;9.816;2022-07-29T12:02:47;20.10;77.40
546;DHT22;259;53.304;9.816;2022-07-29T12:05:13;20.10;77.40
546;DHT22;259;53.304;9.816;2022-07-29T12:07:39;20.10;77.30
546;DHT22;259;53.304;9.816;2022-07-29T12:10:05;20.20;77.40
546;DHT22;259;53.304;9.816;2022-07-29T12:12:31;20.20;77.30
546;DHT22;259;53.304;9.816;2022-07-29T12:14:57;20.20;77.20
546;DHT22;259;53.304;9.816;2022-07-29T12:19:56;20.30;77.30
546;DHT22;259;53.304;9.816;2022-07-29T12:24:53;20.30;77.20
546;DHT22;259;53.304;9.816;2022-07-29T12:27:19;20.40;77.30
546;DHT22;259;53.304;9.816;2022-07-29T12:29:54;20.40;77.10
546;DHT22;259;53.304;9.816;2022-07-29T12:32:20;20.40;77.20
546;DHT22;259;53.304;9.816;2022-07-29T12:34:46;20.40;77.10
546;DHT22;259;53.304;9.816;2022-07-29T12:37:11;20.40;77.10
546;DHT22;259;53.304;9.816;2022-07-29T12:39:37;20.40;77.20
546;DHT22;259;53.304;9.816;2022-07-29T12:42:11;20.40;77.10
546;DHT22;259;53.304;9.816;2022-07-29T12:44:47;20.40;77.10
546;DHT22;259;53.304;9.816;2022-07-29T12:47:14;20.40;77.30
546;DHT22;259;53.304;9.816;2022-07-29T12:49:39;20.40;77.30
546;DHT22;259;53.304;9.816;2022-07-29T12:52:25;20.50;77.40
546;DHT22;259;53.304;9.816;2022-07-29T12:54:50;20.50;77.50
546;DHT22;259;53.304;9.816;2022-07-29T12:57:16;20.50;77.60
546;DHT22;259;53.304;9.816;2022-07-29T12:59:42;20.50;77.80
546;DHT22;259;53.304;9.816;2022-07-29T13:02:21;20.50;77.80
546;DHT22;259;53.304;9.816;2022-07-29T13:04:57;20.50;77.80
546;DHT22;259;53.304;9.816;2022-07-29T13:07:29;20.60;77.90
546;DHT22;259;53.304;9.816;2022-07-29T13:12:36;20.70;78.20
546;DHT22;259;53.304;9.816;2022-07-29T13:15:12;20.80;78.20
546;DHT22;259;53.304;9.816;2022-07-29T13:17:42;20.80;78.00
546;DHT22;259;53.304;9.816;2022-07-29T13:20:10;20.90;78.00
546;DHT22;259;53.304;9.816;2022-07-29T13:22:38;21.00;77.80
546;DHT22;259;53.304;9.816;2022-07-29T13:25:05;21.10;77.60
546;DHT22;259;53.304;9.816;2022-07-29T13:27:35;21.10;77.30
546;DHT22;259;53.304;9.816;2022-07-29T13:30:04;21.20;77.20
546;DHT22;259;53.304;9.816;2022-07-29T13:32:30;21.30;77.10
546;DHT22;259;53.304;9.816;2022-07-29T13:34:57;21.40;76.90
546;DHT22;259;53.304;9.816;2022-07-29T13:37:24;21.40;76.90
546;DHT22;259;53.304;9.816;2022-07-29T13:39:51;21.50;76.80
546;DHT22;259;53.304;9.816;2022-07-29T13:42:17;21.60;76.70
546;DHT22;259;53.304;9.816;2022-07-29T13:44:43;21.70;76.50
546;DHT22;259;53.304;9.816;2022-07-29T13:47:09;21.70;76.40
546;DHT22;259;53.304;9.816;2022-07-29T13:49:35;21.80;76.30
546;DHT22;259;53.304;9.816;2022-07-29T13:52:01;21.90;76.30
546;DHT22;259;53.304;9.816;2022-07-29T13:54:27;21.90;76.20
546;DHT22;259;53.304;9.816;2022-07-29T13:56:52;22.00;76.10
546;DHT22;259;53.304;9.816;2022-07-29T13:59:19;22.00;75.70
546;DHT22;259;53.304;9.816;2022-07-29T14:01:44;22.10;75.90
546;DHT22;259;53.304;9.816;2022-07-29T14:04:10;22.10;75.60
546;DHT22;259;53.304;9.816;2022-07-29T14:06:36;22.10;75.50
546;DHT22;259;53.304;9.816;2022-07-29T14:09:03;22.10;75.50
546;DHT22;259;53.304;9.816;2022-07-29T14:11:31;22.10;75.60
546;DHT22;259;53.304;9.816;2022-07-29T14:13:57;22.10;75.70
546;DHT22;259;53.304;9.816;2022-07-29T14:16:22;22.10;76.00
546;DHT22;259;53.304;9.816;2022-07-29T14:18:48;22.00;76.00
546;DHT22;259;53.304;9.816;2022-07-29T14:21:13;22.00;76.20
546;DHT22;259;53.304;9.816;2022-07-29T14:23:39;22.00;76.20
546;DHT22;259;53.304;9.816;2022-07-29T14:26:06;22.00;76.40
546;DHT22;259;53.304;9.816;2022-07-29T14:28:32;22.00;76.50
546;DHT22;259;53.304;9.816;2022-07-29T14:30:57;22.00;76.70
546;DHT22;259;53.304;9.816;2022-07-29T14:33:23;22.00;76.80
546;DHT22;259;53.304;9.816;2022-07-29T14:35:48;22.00;76.90
546;DHT22;259;53.304;9.816;2022-07-29T14:38:14;22.00;76.90
546;DHT22;259;53.304;9.816;2022-07-29T14:40:40;22.00;77.30
546;DHT22;259;53.304;9.816;2022-07-29T14:43:05;22.10;77.30
546;DHT22;259;53.304;9.816;2022-07-29T14:45:31;22.10;77.20
546;DHT22;259;53.304;9.816;2022-07-29T14:47:56;22.20;76.90
546;DHT22;259;53.304;9.816;2022-07-29T14:50:22;22.30;76.90
546;DHT22;259;53.304;9.816;2022-07-29T14:52:48;22.40;76.80
546;DHT22;259;53.304;9.816;2022-07-29T14:55:13;22.40;76.50
546;DHT22;259;53.304;9.816;2022-07-29T14:57:39;22.50;76.20
546;DHT22;259;53.304;9.816;2022-07-29T15:00:06;22.60;76.00
546;DHT22;259;53.304;9.816;2022-07-29T15:02:33;22.60;76.10
546;DHT22;259;53.304;9.816;2022-07-29T15:04:59;22.70;76.00
546;DHT22;259;53.304;9.816;2022-07-29T15:07:24;22.80;76.10
546;DHT22;259;53.304;9.816;2022-07-29T15:09:50;22.80;75.90
546;DHT22;259;53.304;9.816;2022-07-29T15:12:16;22.90;75.80
546;DHT22;259;53.304;9.816;2022-07-29T15:14:41;22.90;75.60
546;DHT22;259;53.304;9.816;2022-07-29T15:17:07;23.00;75.60
546;DHT22;259;53.304;9.816;2022-07-29T15:19:33;23.10;75.50
546;DHT22;259;53.304;9.816;2022-07-29T15:21:58;23.10;75.30
546;DHT22;259;53.304;9.816;2022-07-29T15:24:24;23.20;75.50
546;DHT22;259;53.304;9.816;2022-07-29T15:26:50;23.20;75.40
546;DHT22;259;53.304;9.816;2022-07-29T15:29:15;23.30;75.50
546;DHT22;259;53.304;9.816;2022-07-29T15:31:41;23.30;75.30
546;DHT22;259;53.304;9.816;2022-07-29T15:34:07;23.40;75.30
546;DHT22;259;53.304;9.816;2022-07-29T15:36:32;23.40;75.10
546;DHT22;259;53.304;9.816;2022-07-29T15:38:58;23.50;75.20
546;DHT22;259;53.304;9.816;2022-07-29T15:41:23;23.50;75.10
546;DHT22;259;53.304;9.816;2022-07-29T15:43:49;23.50;75.20
546;DHT22;259;53.304;9.816;2022-07-29T15:46:17;23.60;75.20
546;DHT22;259;53.304;9.816;2022-07-29T15:49:01;23.60;75.20
546;DHT22;259;53.304;9.816;2022-07-29T15:51:27;23.60;75.10
546;DHT22;259;53.304;9.816;2022-07-29T15:53:53;23.60;75.30
546;DHT22;259;53.304;9.816;2022-07-29T15:56:19;23.60;75.10
546;DHT22;259;53.304;9.816;2022-07-29T15:58:45;23.60;75.20
546;DHT22;259;53.304;9.816;2022-07-29T16:01:10;23.50;75.40
546;DHT22;259;53.304;9.816;2022-07-29T16:03:36;23.50;75.30
546;DHT22;259;53.304;9.816;2022-07-29T16:06:02;23.50;75.40
546;DHT22;259;53.304;9.816;2022-07-29T16:08:27;23.40;75.50
546;DHT22;259;53.304;9.816;2022-07-29T16:10:53;23.40;75.60
546;DHT22;259;53.304;9.816;2022-07-29T16:13:19;23.40;75.80
546;DHT22;259;53.304;9.816;2022-07-29T16:15:45;23.40;76.00
546;DHT22;259;53.304;9.816;2022-07-29T16:18:11;23.40;76.90
546;DHT22;259;53.304;9.816;2022-07-29T16:20:38;23.30;76.20
546;DHT22;259;53.304;9.816;2022-07-29T16:23:04;23.40;76.40
546;DHT22;259;53.304;9.816;2022-07-29T16:25:30;23.30;76.50
546;DHT22;259;53.304;9.816;2022-07-29T16:27:56;23.30;76.60
546;DHT22;259;53.304;9.816;2022-07-29T16:30:21;23.30;76.60
546;DHT22;259;53.304;9.816;2022-07-29T16:32:47;23.30;76.80
546;DHT22;259;53.304;9.816;2022-07-29T16:35:13;23.30;76.90
546;DHT22;259;53.304;9.816;2022-07-29T16:37:38;23.20;76.90
546;DHT22;259;53.304;9.816;2022-07-29T16:40:05;23.20;77.20
546;DHT22;259;53.304;9.816;2022-07-29T16:42:31;23.20;77.30
546;DHT22;259;53.304;9.816;2022-07-29T16:44:56;23.20;77.40
546;DHT22;259;53.304;9.816;2022-07-29T16:47:22;23.20;77.50
546;DHT22;259;53.304;9.816;2022-07-29T16:49:48;23.10;77.60
546;DHT22;259;53.304;9.816;2022-07-29T16:52:14;23.10;77.60
546;DHT22;259;53.304;9.816;2022-07-29T16:54:39;23.10;77.80
546;DHT22;259;53.304;9.816;2022-07-29T16:57:06;23.10;77.90
546;DHT22;259;53.304;9.816;2022-07-29T16:59:31;23.10;78.00
546;DHT22;259;53.304;9.816;2022-07-29T17:01:57;23.10;78.10
546;DHT22;259;53.304;9.816;2022-07-29T17:04:22;23.10;78.90
546;DHT22;259;53.304;9.816;2022-07-29T17:06:48;23.00;78.10
546;DHT22;259;53.304;9.816;2022-07-29T17:09:14;23.00;78.20
546;DHT22;259;53.304;9.816;2022-07-29T17:11:41;23.00;78.20
546;DHT22;259;53.304;9.816;2022-07-29T17:14:08;23.00;78.20
546;DHT22;259;53.304;9.816;2022-07-29T17:16:35;23.00;78.30
546;DHT22;259;53.304;9.816;2022-07-29T17:19:00;23.00;78.30
546;DHT22;259;53.304;9.816;2022-07-29T17:21:26;23.00;78.20
546;DHT22;259;53.304;9.816;2022-07-29T17:23:53;22.90;78.10
546;DHT22;259;53.304;9.816;2022-07-29T17:26:19;22.90;78.20
546;DHT22;259;53.304;9.816;2022-07-29T17:28:45;22.90;78.20